Time;durP1;ratioP1;P1;durP2;ratioP2;P2;SDS_P1;SDS_P2;PMS_P1;PMS_P2;Temp;Humidity;BMP_temperature;BMP_pressure;BME280_temperature;BME280_humidity;BME280_pressure;Samples;Min_cycle;Max_cycle;Signal;HPM_P1;HPM_P2
2023/11/28 00:01:00;;;;;;;;;;;;;;;;;;4171600;28;19925;-65
2023/11/28 00:03:02;;;;;;;;;;;;;;;;;;4183460;28;19921;-65
2023/11/28 00:05:04;;;;;;;;;;;;;;;;;;4180057;28;19921;-65
2023/11/28 00:07:06;;;;;;;;;;;;;;;;;;4153856;28;19932;-65
2023/11/28 00:09:10;;;;;;;;;;;;;;;;;;4171863;28;20284;-65
2023/11/28 00:11:12;;;;;;;;;;;;;;;;;;4183338;28;19921;-65
2023/11/28 00:13:13;;;;;;;;;;;;;;;;;;4183384;28;20127;-64
2023/11/28 00:15:16;;;;;;;;;;;;;;;;;;4183192;28;20373;-64
2023/11/28 00:17:18;;;;;;;;;;;;;;;;;;4168460;28;19952;-64
2023/11/28 00:19:20;;;;;;;;;;;;;;;;;;4176852;28;19927;-64
2023/11/28 00:21:21;;;;;;;;;;;;;;;;;;4182770;28;19928;-64
2023/11/28 00:23:23;;;;;;;;;;;;;;;;;;4182055;28;20293;-65
2023/11/28 00:25:24;;;;;;;;;;;;;;;;;;4164790;28;19925;-65
2023/11/28 00:27:26;;;;;;;;;;;;;;;;;;4165148;28;19937;-65
2023/11/28 00:29:27;;;;;;;;;;;;;;;;;;4165890;28;19929;-65
2023/11/28 00:31:29;;;;;;;;;;;;;;;;;;4165538;28;19921;-64
2023/11/28 00:33:31;;;;;;;;;;;;;;;;;;4166239;28;19921;-65
2023/11/28 00:35:33;;;;;;;;;;;;;;;;;;4166205;28;20504;-65
2023/11/28 00:37:34;;;;;;;;;;;;;;;;;;4166333;28;19927;-65
2023/11/28 00:39:36;;;;;;;;;;;;;;;;;;4165824;28;19937;-64
2023/11/28 00:41:38;;;;;;;;;;;;;;;;;;4166284;28;19925;-64
2023/11/28 00:43:39;;;;;;;;;;;;;;;;;;4166138;28;19921;-65
2023/11/28 00:45:41;;;;;;;;;;;;;;;;;;4148880;28;19922;-65
2023/11/28 00:47:43;;;;;;;;;;;;;;;;;;4166269;28;19971;-65
2023/11/28 00:49:45;;;;;;;;;;;;;;;;;;4166384;28;19975;-64
2023/11/28 00:51:47;;;;;;;;;;;;;;;;;;4165716;28;19979;-65
2023/11/28 00:53:48;;;;;;;;;;;;;;;;;;4166023;28;19924;-64
2023/11/28 00:55:50;;;;;;;;;;;;;;;;;;4166359;28;19921;-65
2023/11/28 00:57:51;;;;;;;;;;;;;;;;;;4166285;28;19921;-66
2023/11/28 00:59:53;;;;;;;;;;;;;;;;;;4166444;28;19927;-65
2023/11/28 01:01:54;;;;;;;;;;;;;;;;;;4175320;28;19928;-66
2023/11/28 01:03:56;;;;;;;;;;;;;;;;;;4149565;28;19921;-66
2023/11/28 01:05:57;;;;;;;;;;;;;;;;;;4149830;28;19992;-66
2023/11/28 01:07:59;;;;;;;;;;;;;;;;;;4134177;28;19926;-66
2023/11/28 01:10:01;;;;;;;;;;;;;;;;;;4182544;28;19920;-66
2023/11/28 01:12:02;;;;;;;;;;;;;;;;;;4179972;28;19920;-66
2023/11/28 01:14:04;;;;;;;;;;;;;;;;;;4165930;28;19921;-66
2023/11/28 01:16:05;;;;;;;;;;;;;;;;;;4165887;28;20435;-66
2023/11/28 01:18:07;;;;;;;;;;;;;;;;;;4148048;28;19944;-66
2023/11/28 01:20:09;;;;;;;;;;;;;;;;;;4165218;28;20373;-66
2023/11/28 01:22:11;;;;;;;;;;;;;;;;;;4165908;28;19925;-66
2023/11/28 01:24:13;;;;;;;;;;;;;;;;;;4165582;28;20305;-66
2023/11/28 01:26:14;;;;;;;;;;;;;;;;;;4165633;28;19925;-66
2023/11/28 01:28:16;;;;;;;;;;;;;;;;;;4165823;28;20373;-66
2023/11/28 01:30:17;;;;;;;;;;;;;;;;;;4165748;28;19928;-66
2023/11/28 01:32:19;;;;;;;;;;;;;;;;;;4148112;28;19991;-66
2023/11/28 01:34:21;;;;;;;;;;;;;;;;;;4165471;28;19921;-65
2023/11/28 01:36:23;;;;;;;;;;;;;;;;;;4165589;28;19921;-66
2023/11/28 01:38:24;;;;;;;;;;;;;;;;;;4165577;28;20374;-66
2023/11/28 01:40:26;;;;;;;;;;;;;;;;;;4148000;28;19976;-66
2023/11/28 01:42:27;;;;;;;;;;;;;;;;;;4165410;28;20328;-65
2023/11/28 01:44:29;;;;;;;;;;;;;;;;;;4165300;28;19925;-65
2023/11/28 01:46:30;;;;;;;;;;;;;;;;;;4165499;28;19921;-66
2023/11/28 01:48:32;;;;;;;;;;;;;;;;;;4165233;28;19925;-66
2023/11/28 01:50:33;;;;;;;;;;;;;;;;;;4165077;28;19975;-66
2023/11/28 01:52:35;;;;;;;;;;;;;;;;;;4165471;28;19928;-66
2023/11/28 01:54:36;;;;;;;;;;;;;;;;;;4165004;28;19921;-66
2023/11/28 01:56:38;;;;;;;;;;;;;;;;;;4165360;28;20319;-66
2023/11/28 01:58:39;;;;;;;;;;;;;;;;;;4158797;28;19932;-66
2023/11/28 02:00:41;;;;;;;;;;;;;;;;;;4148812;28;19921;-64
2023/11/28 02:02:43;;;;;;;;;;;;;;;;;;4151905;28;20381;-63
2023/11/28 02:04:44;;;;;;;;;;;;;;;;;;4147813;28;19956;-64
2023/11/28 02:06:46;;;;;;;;;;;;;;;;;;4165089;28;19925;-64
2023/11/28 02:08:48;;;;;;;;;;;;;;;;;;4165681;28;19921;-64
2023/11/28 02:10:49;;;;;;;;;;;;;;;;;;4164973;28;19925;-64
2023/11/28 02:12:51;;;;;;;;;;;;;;;;;;4147235;28;20009;-63
2023/11/28 02:14:52;;;;;;;;;;;;;;;;;;4165040;28;19921;-64
2023/11/28 02:16:54;;;;;;;;;;;;;;;;;;4147251;28;19926;-64
2023/11/28 02:18:56;;;;;;;;;;;;;;;;;;4173148;28;20312;-64
2023/11/28 02:20:57;;;;;;;;;;;;;;;;;;4174727;28;19925;-64
2023/11/28 02:22:59;;;;;;;;;;;;;;;;;;4164528;28;19925;-64
2023/11/28 02:25:01;;;;;;;;;;;;;;;;;;4163053;28;19921;-63
2023/11/28 02:27:02;;;;;;;;;;;;;;;;;;4163193;28;20323;-63
2023/11/28 02:29:04;;;;;;;;;;;;;;;;;;4163135;28;19924;-63
2023/11/28 02:31:05;;;;;;;;;;;;;;;;;;4146285;28;20389;-63
2023/11/28 02:33:07;;;;;;;;;;;;;;;;;;4164154;28;19976;-64
2023/11/28 02:35:08;;;;;;;;;;;;;;;;;;4163447;28;19968;-64
2023/11/28 02:37:17;;;;;;;;;;;;;;;;;;4164274;28;19921;-63
2023/11/28 02:39:19;;;;;;;;;;;;;;;;;;4163852;28;19951;-63
2023/11/28 02:41:20;;;;;;;;;;;;;;;;;;4163772;28;20374;-64
2023/11/28 02:43:22;;;;;;;;;;;;;;;;;;4164553;28;19924;-64
2023/11/28 02:45:23;;;;;;;;;;;;;;;;;;4164191;28;19921;-63
2023/11/28 02:47:25;;;;;;;;;;;;;;;;;;4164751;28;20043;-63
2023/11/28 02:49:26;;;;;;;;;;;;;;;;;;4164575;28;19921;-63
2023/11/28 02:51:28;;;;;;;;;;;;;;;;;;4164700;28;20254;-64
2023/11/28 02:53:30;;;;;;;;;;;;;;;;;;4164694;28;19948;-63
2023/11/28 02:55:31;;;;;;;;;;;;;;;;;;4153868;28;19952;-63
2023/11/28 02:57:36;;;;;;;;;;;;;;;;;;4162437;28;20369;-64
2023/11/28 02:59:37;;;;;;;;;;;;;;;;;;4164474;28;19921;-63
2023/11/28 03:01:39;;;;;;;;;;;;;;;;;;4174404;28;19939;-63
2023/11/28 03:03:40;;;;;;;;;;;;;;;;;;4181021;28;19947;-63
2023/11/28 03:05:42;;;;;;;;;;;;;;;;;;4168935;28;19925;-63
2023/11/28 03:07:43;;;;;;;;;;;;;;;;;;4164064;28;19925;-63
2023/11/28 03:09:45;;;;;;;;;;;;;;;;;;4179697;28;19924;-63
2023/11/28 03:11:46;;;;;;;;;;;;;;;;;;4181169;28;19950;-65
2023/11/28 03:13:48;;;;;;;;;;;;;;;;;;4166494;28;19921;-64
2023/11/28 03:15:50;;;;;;;;;;;;;;;;;;4164212;28;19921;-65
2023/11/28 03:17:51;;;;;;;;;;;;;;;;;;4164595;28;20369;-64
2023/11/28 03:19:53;;;;;;;;;;;;;;;;;;4180136;28;19920;-64
2023/11/28 03:21:55;;;;;;;;;;;;;;;;;;4180782;28;20376;-64
2023/11/28 03:23:56;;;;;;;;;;;;;;;;;;4175427;28;19975;-64
2023/11/28 03:25:58;;;;;;;;;;;;;;;;;;4164317;28;19921;-65
2023/11/28 03:27:59;;;;;;;;;;;;;;;;;;4164571;28;19921;-64
2023/11/28 03:30:04;;;;;;;;;;;;;;;;;;4164383;28;20067;-65
2023/11/28 03:32:05;;;;;;;;;;;;;;;;;;4147023;28;19964;-64
2023/11/28 03:34:07;;;;;;;;;;;;;;;;;;4164332;28;20618;-65
2023/11/28 03:36:08;;;;;;;;;;;;;;;;;;4164106;28;19921;-64
2023/11/28 03:38:10;;;;;;;;;;;;;;;;;;4164635;28;19929;-65
2023/11/28 03:40:15;;;;;;;;;;;;;;;;;;4164002;28;20031;-64
2023/11/28 03:42:16;;;;;;;;;;;;;;;;;;4146562;28;19921;-65
2023/11/28 03:44:18;;;;;;;;;;;;;;;;;;4164118;28;19927;-65
2023/11/28 03:46:19;;;;;;;;;;;;;;;;;;4163942;28;19968;-64
2023/11/28 03:48:21;;;;;;;;;;;;;;;;;;4161963;28;20035;-65
2023/11/28 03:50:22;;;;;;;;;;;;;;;;;;4147700;28;19926;-64
2023/11/28 03:52:24;;;;;;;;;;;;;;;;;;4148444;28;20028;-64
2023/11/28 03:54:25;;;;;;;;;;;;;;;;;;4150524;28;19925;-65
2023/11/28 03:56:27;;;;;;;;;;;;;;;;;;4150758;28;19960;-65
2023/11/28 03:58:28;;;;;;;;;;;;;;;;;;4150849;28;19921;-65
2023/11/28 04:00:30;;;;;;;;;;;;;;;;;;4167091;28;19979;-65
2023/11/28 04:02:31;;;;;;;;;;;;;;;;;;4183218;28;19931;-65
2023/11/28 04:04:33;;;;;;;;;;;;;;;;;;4183604;28;19951;-65
2023/11/28 04:06:35;;;;;;;;;;;;;;;;;;4183550;28;19960;-65
2023/11/28 04:08:36;;;;;;;;;;;;;;;;;;4181252;28;19921;-65
2023/11/28 04:10:41;;;;;;;;;;;;;;;;;;4166983;28;20365;-65
2023/11/28 04:12:42;;;;;;;;;;;;;;;;;;4166703;28;19920;-65
2023/11/28 04:14:44;;;;;;;;;;;;;;;;;;4166710;28;19921;-64
2023/11/28 04:16:45;;;;;;;;;;;;;;;;;;4166885;28;19924;-65
2023/11/28 04:18:47;;;;;;;;;;;;;;;;;;4172914;28;20385;-65
2023/11/28 04:20:48;;;;;;;;;;;;;;;;;;4150446;28;19925;-65
2023/11/28 04:22:50;;;;;;;;;;;;;;;;;;4150637;28;19984;-64
2023/11/28 04:24:51;;;;;;;;;;;;;;;;;;4150214;28;19931;-65
2023/11/28 04:26:57;;;;;;;;;;;;;;;;;;4156373;28;20361;-64
2023/11/28 04:28:58;;;;;;;;;;;;;;;;;;4166688;28;20423;-64
2023/11/28 04:30:59;;;;;;;;;;;;;;;;;;4165243;28;20297;-64
2023/11/28 04:33:01;;;;;;;;;;;;;;;;;;4149146;28;19932;-64
2023/11/28 04:35:03;;;;;;;;;;;;;;;;;;4150170;28;19975;-64
2023/11/28 04:37:05;;;;;;;;;;;;;;;;;;4132840;28;19926;-65
2023/11/28 04:39:07;;;;;;;;;;;;;;;;;;4150001;28;19929;-64
2023/11/28 04:41:09;;;;;;;;;;;;;;;;;;4150141;28;20340;-64
2023/11/28 04:43:10;;;;;;;;;;;;;;;;;;4150155;28;19960;-64
2023/11/28 04:45:12;;;;;;;;;;;;;;;;;;4160433;28;19987;-64
2023/11/28 04:47:13;;;;;;;;;;;;;;;;;;4164527;28;19925;-64
2023/11/28 04:49:15;;;;;;;;;;;;;;;;;;4166331;28;19971;-64
2023/11/28 04:51:17;;;;;;;;;;;;;;;;;;4166379;28;20324;-64
2023/11/28 04:53:18;;;;;;;;;;;;;;;;;;4166054;28;20320;-64
2023/11/28 04:55:20;;;;;;;;;;;;;;;;;;4166262;28;19995;-64
2023/11/28 04:57:21;;;;;;;;;;;;;;;;;;4166347;28;20440;-64
2023/11/28 04:59:22;;;;;;;;;;;;;;;;;;4166205;28;20297;-64
2023/11/28 05:01:24;;;;;;;;;;;;;;;;;;4166405;28;19925;-64
2023/11/28 05:03:26;;;;;;;;;;;;;;;;;;4148273;28;19961;-64
2023/11/28 05:05:27;;;;;;;;;;;;;;;;;;4164489;28;19921;-64
2023/11/28 05:07:29;;;;;;;;;;;;;;;;;;4165998;28;19920;-64
2023/11/28 05:09:33;;;;;;;;;;;;;;;;;;4179650;28;20364;-64
2023/11/28 05:11:35;;;;;;;;;;;;;;;;;;4159712;28;19921;-63
2023/11/28 05:13:37;;;;;;;;;;;;;;;;;;4165835;28;20327;-64
2023/11/28 05:15:39;;;;;;;;;;;;;;;;;;4165063;28;19936;-64
2023/11/28 05:17:40;;;;;;;;;;;;;;;;;;4165081;28;19974;-64
2023/11/28 05:19:42;;;;;;;;;;;;;;;;;;4165779;28;19959;-64
2023/11/28 05:21:43;;;;;;;;;;;;;;;;;;4166043;28;19921;-64
2023/11/28 05:23:45;;;;;;;;;;;;;;;;;;4163783;28;20016;-64
2023/11/28 05:25:47;;;;;;;;;;;;;;;;;;4165879;28;20404;-64
2023/11/28 05:27:48;;;;;;;;;;;;;;;;;;4165666;28;20274;-64
2023/11/28 05:29:50;;;;;;;;;;;;;;;;;;4166003;28;20276;-64
2023/11/28 05:31:51;;;;;;;;;;;;;;;;;;4162720;28;19921;-64
2023/11/28 05:33:53;;;;;;;;;;;;;;;;;;4162618;28;19933;-65
2023/11/28 05:35:54;;;;;;;;;;;;;;;;;;4161329;28;19975;-65
2023/11/28 05:37:56;;;;;;;;;;;;;;;;;;4149342;28;19921;-65
2023/11/28 05:40:03;;;;;;;;;;;;;;;;;;4149324;28;19921;-65
2023/11/28 05:42:08;;;;;;;;;;;;;;;;;;4163968;28;20228;-65
2023/11/28 05:44:09;;;;;;;;;;;;;;;;;;4156113;28;19925;-65
2023/11/28 05:46:11;;;;;;;;;;;;;;;;;;4151811;28;20017;-66
2023/11/28 05:48:12;;;;;;;;;;;;;;;;;;4165314;28;19971;-65
2023/11/28 05:50:14;;;;;;;;;;;;;;;;;;4165343;28;19925;-66
2023/11/28 05:52:15;;;;;;;;;;;;;;;;;;4165477;28;20369;-65
2023/11/28 05:54:17;;;;;;;;;;;;;;;;;;4165422;28;19979;-65
2023/11/28 05:56:18;;;;;;;;;;;;;;;;;;4159105;28;19967;-66
2023/11/28 05:58:20;;;;;;;;;;;;;;;;;;4153577;28;19925;-65
2023/11/28 06:00:21;;;;;;;;;;;;;;;;;;4149022;28;19955;-65
2023/11/28 06:02:23;;;;;;;;;;;;;;;;;;4162233;28;19925;-66
2023/11/28 06:04:24;;;;;;;;;;;;;;;;;;4164869;28;19925;-65
2023/11/28 06:06:26;;;;;;;;;;;;;;;;;;4165148;28;20289;-65
2023/11/28 06:08:27;;;;;;;;;;;;;;;;;;4169612;28;19920;-65
2023/11/28 06:10:29;;;;;;;;;;;;;;;;;;4181533;28;20011;-65
2023/11/28 06:12:32;;;;;;;;;;;;;;;;;;4181133;28;20416;-65
2023/11/28 06:14:34;;;;;;;;;;;;;;;;;;4181269;28;20323;-65
2023/11/28 06:16:35;;;;;;;;;;;;;;;;;;4156391;28;19980;-65
2023/11/28 06:18:37;;;;;;;;;;;;;;;;;;4164575;28;19928;-65
2023/11/28 06:20:39;;;;;;;;;;;;;;;;;;4159621;28;19920;-65
2023/11/28 06:22:42;;;;;;;;;;;;;;;;;;4154243;28;19936;-65
2023/11/28 06:24:44;;;;;;;;;;;;;;;;;;4157456;28;20347;-65
2023/11/28 06:26:46;;;;;;;;;;;;;;;;;;4146734;28;19968;-65
2023/11/28 06:28:47;;;;;;;;;;;;;;;;;;4146750;28;20012;-65
2023/11/28 06:30:49;;;;;;;;;;;;;;;;;;4164301;28;19986;-65
2023/11/28 06:32:50;;;;;;;;;;;;;;;;;;4164930;28;20284;-65
2023/11/28 06:34:52;;;;;;;;;;;;;;;;;;4164732;28;20424;-65
2023/11/28 06:36:53;;;;;;;;;;;;;;;;;;4164708;28;19932;-65
2023/11/28 06:38:55;;;;;;;;;;;;;;;;;;4164593;28;19932;-65
2023/11/28 06:40:56;;;;;;;;;;;;;;;;;;4150924;28;19921;-65
2023/11/28 06:42:58;;;;;;;;;;;;;;;;;;4148703;28;20016;-65
2023/11/28 06:45:02;;;;;;;;;;;;;;;;;;4131180;28;19949;-65
2023/11/28 06:47:03;;;;;;;;;;;;;;;;;;4148267;28;20004;-65
2023/11/28 06:49:05;;;;;;;;;;;;;;;;;;4148455;28;20462;-66
2023/11/28 06:51:07;;;;;;;;;;;;;;;;;;4148355;28;20356;-65
2023/11/28 06:53:08;;;;;;;;;;;;;;;;;;4130987;28;19926;-66
2023/11/28 06:55:12;;;;;;;;;;;;;;;;;;4148378;28;19956;-65
2023/11/28 06:57:14;;;;;;;;;;;;;;;;;;4152086;28;20332;-65
2023/11/28 06:59:16;;;;;;;;;;;;;;;;;;4146945;28;19988;-65
2023/11/28 07:01:18;;;;;;;;;;;;;;;;;;4153656;28;19921;-65
2023/11/28 07:03:20;;;;;;;;;;;;;;;;;;4181008;28;19920;-66
2023/11/28 07:05:21;;;;;;;;;;;;;;;;;;4181126;28;19921;-65
2023/11/28 07:07:24;;;;;;;;;;;;;;;;;;4181196;28;19924;-65
2023/11/28 07:09:25;;;;;;;;;;;;;;;;;;4180480;28;19950;-65
2023/11/28 07:11:27;;;;;;;;;;;;;;;;;;4181024;28;19920;-65
2023/11/28 07:13:28;;;;;;;;;;;;;;;;;;4181075;28;19971;-65
2023/11/28 07:15:30;;;;;;;;;;;;;;;;;;4180894;28;19924;-65
2023/11/28 07:17:32;;;;;;;;;;;;;;;;;;4180777;28;19978;-65
2023/11/28 07:19:34;;;;;;;;;;;;;;;;;;4180971;28;19971;-65
2023/11/28 07:21:36;;;;;;;;;;;;;;;;;;4180837;28;20288;-66
2023/11/28 07:23:37;;;;;;;;;;;;;;;;;;4180694;28;19925;-65
2023/11/28 07:25:39;;;;;;;;;;;;;;;;;;4180616;28;19988;-65
2023/11/28 07:27:40;;;;;;;;;;;;;;;;;;4181936;28;19921;-65
2023/11/28 07:29:42;;;;;;;;;;;;;;;;;;4183696;28;19921;-66
2023/11/28 07:31:43;;;;;;;;;;;;;;;;;;4183902;28;20342;-65
2023/11/28 07:33:45;;;;;;;;;;;;;;;;;;4184104;28;20291;-65
2023/11/28 07:35:46;;;;;;;;;;;;;;;;;;4179429;28;19921;-66
2023/11/28 07:37:48;;;;;;;;;;;;;;;;;;4151292;28;20332;-65
2023/11/28 07:39:50;;;;;;;;;;;;;;;;;;4151012;28;20044;-66
2023/11/28 07:41:51;;;;;;;;;;;;;;;;;;4151239;28;19921;-65
2023/11/28 07:43:53;;;;;;;;;;;;;;;;;;4151155;28;19929;-65
2023/11/28 07:45:56;;;;;;;;;;;;;;;;;;4150824;28;19992;-65
2023/11/28 07:47:58;;;;;;;;;;;;;;;;;;4133705;28;19922;-65
2023/11/28 07:49:59;;;;;;;;;;;;;;;;;;4151119;28;19968;-66
2023/11/28 07:52:01;;;;;;;;;;;;;;;;;;4151004;28;19928;-65
2023/11/28 07:54:06;;;;;;;;;;;;;;;;;;4159622;28;19987;-65
2023/11/28 07:56:07;;;;;;;;;;;;;;;;;;4167051;28;19959;-65
2023/11/28 07:58:09;;;;;;;;;;;;;;;;;;4166980;28;19925;-65
2023/11/28 08:00:11;;;;;;;;;;;;;;;;;;4166963;28;19921;-65
2023/11/28 08:02:12;;;;;;;;;;;;;;;;;;4164118;28;19947;-65
2023/11/28 08:04:14;;;;;;;;;;;;;;;;;;4183647;28;20328;-65
2023/11/28 08:06:18;;;;;;;;;;;;;;;;;;4183680;28;20479;-66
2023/11/28 08:08:20;;;;;;;;;;;;;;;;;;4183100;28;19999;-65
2023/11/28 08:10:22;;;;;;;;;;;;;;;;;;4183551;28;19920;-66
2023/11/28 08:12:23;;;;;;;;;;;;;;;;;;4183725;28;19931;-65
2023/11/28 08:14:25;;;;;;;;;;;;;;;;;;4183293;28;19936;-65
2023/11/28 08:16:26;;;;;;;;;;;;;;;;;;4183120;28;19925;-66
2023/11/28 08:18:31;;;;;;;;;;;;;;;;;;4183243;28;19971;-66
2023/11/28 08:20:36;;;;;;;;;;;;;;;;;;4183021;28;19971;-65
2023/11/28 08:22:37;;;;;;;;;;;;;;;;;;4183056;28;19951;-65
2023/11/28 08:24:39;;;;;;;;;;;;;;;;;;4183470;28;19927;-66
2023/11/28 08:26:43;;;;;;;;;;;;;;;;;;4183386;28;19962;-65
2023/11/28 08:28:45;;;;;;;;;;;;;;;;;;4183080;28;19928;-66
2023/11/28 08:30:47;;;;;;;;;;;;;;;;;;4182898;28;19928;-65
2023/11/28 08:32:49;;;;;;;;;;;;;;;;;;4165746;28;19921;-66
2023/11/28 08:34:50;;;;;;;;;;;;;;;;;;4150071;28;20011;-66
2023/11/28 08:36:52;;;;;;;;;;;;;;;;;;4150293;28;19972;-66
2023/11/28 08:38:53;;;;;;;;;;;;;;;;;;4149512;28;19925;-66
2023/11/28 08:40:57;;;;;;;;;;;;;;;;;;4150045;28;19921;-66
2023/11/28 08:42:59;;;;;;;;;;;;;;;;;;4150294;28;20020;-65
2023/11/28 08:45:00;;;;;;;;;;;;;;;;;;4150015;28;19925;-65
2023/11/28 08:47:03;;;;;;;;;;;;;;;;;;4150129;28;19983;-66
2023/11/28 08:49:05;;;;;;;;;;;;;;;;;;4149834;28;19944;-66
2023/11/28 08:51:06;;;;;;;;;;;;;;;;;;4164636;28;20327;-65
2023/11/28 08:53:10;;;;;;;;;;;;;;;;;;4166223;28;20012;-65
2023/11/28 08:55:11;;;;;;;;;;;;;;;;;;4166463;28;20007;-66
2023/11/28 08:57:16;;;;;;;;;;;;;;;;;;4166274;28;20065;-66
2023/11/28 08:59:18;;;;;;;;;;;;;;;;;;4166298;28;19924;-66
2023/11/28 09:01:20;;;;;;;;;;;;;;;;;;4173525;28;20007;-65
2023/11/28 09:03:21;;;;;;;;;;;;;;;;;;4182404;28;19943;-65
2023/11/28 09:05:23;;;;;;;;;;;;;;;;;;4182689;28;19943;-66
2023/11/28 09:07:27;;;;;;;;;;;;;;;;;;4182763;28;20019;-65
2023/11/28 09:09:28;;;;;;;;;;;;;;;;;;4182430;28;20019;-65
2023/11/28 09:11:30;;;;;;;;;;;;;;;;;;4182259;28;19967;-66
2023/11/28 09:13:31;;;;;;;;;;;;;;;;;;4182614;28;20356;-65
2023/11/28 09:15:33;;;;;;;;;;;;;;;;;;4182032;28;19928;-65
2023/11/28 09:17:35;;;;;;;;;;;;;;;;;;4182435;28;20342;-65
2023/11/28 09:19:36;;;;;;;;;;;;;;;;;;4182391;28;19979;-65
2023/11/28 09:21:38;;;;;;;;;;;;;;;;;;4182136;28;19975;-65
2023/11/28 09:23:40;;;;;;;;;;;;;;;;;;4182359;28;19920;-65
2023/11/28 09:25:41;;;;;;;;;;;;;;;;;;4182368;28;19924;-65
2023/11/28 09:27:48;;;;;;;;;;;;;;;;;;4182452;28;19921;-66
2023/11/28 09:29:50;;;;;;;;;;;;;;;;;;4152326;28;19928;-65
2023/11/28 09:31:54;;;;;;;;;;;;;;;;;;4149217;28;19993;-65
2023/11/28 09:33:57;;;;;;;;;;;;;;;;;;4149346;28;19925;-65
2023/11/28 09:35:59;;;;;;;;;;;;;;;;;;4149179;28;19921;-65
2023/11/28 09:38:00;;;;;;;;;;;;;;;;;;4149449;28;19925;-65
2023/11/28 09:40:05;;;;;;;;;;;;;;;;;;4149233;28;19926;-65
2023/11/28 09:42:07;;;;;;;;;;;;;;;;;;4148985;28;19921;-65
2023/11/28 09:44:08;;;;;;;;;;;;;;;;;;4149231;28;20340;-65
2023/11/28 09:46:10;;;;;;;;;;;;;;;;;;4154360;28;20347;-65
2023/11/28 09:48:13;;;;;;;;;;;;;;;;;;4165597;28;19921;-65
2023/11/28 09:50:16;;;;;;;;;;;;;;;;;;4165056;28;20297;-65
2023/11/28 09:52:20;;;;;;;;;;;;;;;;;;4165247;28;19925;-65
2023/11/28 09:54:22;;;;;;;;;;;;;;;;;;4165468;28;20423;-65
2023/11/28 09:56:24;;;;;;;;;;;;;;;;;;4165093;28;19925;-65
2023/11/28 09:58:26;;;;;;;;;;;;;;;;;;4165373;28;19925;-65
2023/11/28 10:00:28;;;;;;;;;;;;;;;;;;4147839;28;20378;-65
2023/11/28 10:02:30;;;;;;;;;;;;;;;;;;4181319;28;19947;-65
2023/11/28 10:04:32;;;;;;;;;;;;;;;;;;4181612;28;20364;-65
2023/11/28 10:06:33;;;;;;;;;;;;;;;;;;4181443;28;19925;-65
2023/11/28 10:08:35;;;;;;;;;;;;;;;;;;4181456;28;19927;-65
2023/11/28 10:10:36;;;;;;;;;;;;;;;;;;4181350;28;19925;-65
2023/11/28 10:12:38;;;;;;;;;;;;;;;;;;4181386;28;20274;-65
2023/11/28 10:14:39;;;;;;;;;;;;;;;;;;4181348;28;20322;-65
2023/11/28 10:16:44;;;;;;;;;;;;;;;;;;4181158;28;19931;-65
2023/11/28 10:18:46;;;;;;;;;;;;;;;;;;4163889;28;19925;-65
2023/11/28 10:20:49;;;;;;;;;;;;;;;;;;4181419;28;19951;-65
2023/11/28 10:22:51;;;;;;;;;;;;;;;;;;4181441;28;19928;-65
2023/11/28 10:24:55;;;;;;;;;;;;;;;;;;4176036;28;19982;-65
2023/11/28 10:26:57;;;;;;;;;;;;;;;;;;4164986;28;20277;-65
2023/11/28 10:28:58;;;;;;;;;;;;;;;;;;4164974;28;19921;-65
2023/11/28 10:31:00;;;;;;;;;;;;;;;;;;4164915;28;20287;-65
2023/11/28 10:33:02;;;;;;;;;;;;;;;;;;4164973;28;19925;-65
2023/11/28 10:35:05;;;;;;;;;;;;;;;;;;4164894;28;19925;-65
2023/11/28 10:37:07;;;;;;;;;;;;;;;;;;4147137;28;20298;-65
2023/11/28 10:39:08;;;;;;;;;;;;;;;;;;4164575;28;20008;-65
2023/11/28 10:41:10;;;;;;;;;;;;;;;;;;4164856;28;19925;-65
2023/11/28 10:43:11;;;;;;;;;;;;;;;;;;4164358;28;19965;-65
2023/11/28 10:45:15;;;;;;;;;;;;;;;;;;4164783;28;19925;-64
2023/11/28 10:47:17;;;;;;;;;;;;;;;;;;4164138;28;20017;-65
2023/11/28 10:49:19;;;;;;;;;;;;;;;;;;4164096;28;19975;-65
2023/11/28 10:51:22;;;;;;;;;;;;;;;;;;4163710;28;19921;-65
2023/11/28 10:53:23;;;;;;;;;;;;;;;;;;4162876;28;19936;-65
2023/11/28 10:55:25;;;;;;;;;;;;;;;;;;4163767;28;19929;-65
2023/11/28 10:57:27;;;;;;;;;;;;;;;;;;4163464;28;19925;-65
2023/11/28 10:59:29;;;;;;;;;;;;;;;;;;4148351;28;19921;-64
2023/11/28 11:01:30;;;;;;;;;;;;;;;;;;4155483;28;19925;-65
2023/11/28 11:03:32;;;;;;;;;;;;;;;;;;4161277;28;19921;-65
2023/11/28 11:05:35;;;;;;;;;;;;;;;;;;4168003;28;19925;-65
2023/11/28 11:07:36;;;;;;;;;;;;;;;;;;4167680;28;19928;-65
2023/11/28 11:09:38;;;;;;;;;;;;;;;;;;4168890;28;19925;-65
2023/11/28 11:11:39;;;;;;;;;;;;;;;;;;4167508;28;19951;-64
2023/11/28 11:13:41;;;;;;;;;;;;;;;;;;4149794;28;19921;-65
2023/11/28 11:15:44;;;;;;;;;;;;;;;;;;4175482;28;20373;-65
2023/11/28 11:17:45;;;;;;;;;;;;;;;;;;4167303;28;19921;-65
2023/11/28 11:19:47;;;;;;;;;;;;;;;;;;4167736;28;19927;-64
2023/11/28 11:21:48;;;;;;;;;;;;;;;;;;4162982;28;20028;-65
2023/11/28 11:23:50;;;;;;;;;;;;;;;;;;4167323;28;19967;-65
2023/11/28 11:25:55;;;;;;;;;;;;;;;;;;4149984;28;20012;-65
2023/11/28 11:27:57;;;;;;;;;;;;;;;;;;4167406;28;20385;-65
2023/11/28 11:29:59;;;;;;;;;;;;;;;;;;4167028;28;19928;-65
2023/11/28 11:32:00;;;;;;;;;;;;;;;;;;4166832;28;20269;-65
2023/11/28 11:34:02;;;;;;;;;;;;;;;;;;4166996;28;19921;-65
2023/11/28 11:36:10;;;;;;;;;;;;;;;;;;4166757;28;20032;-65
2023/11/28 11:38:11;;;;;;;;;;;;;;;;;;4166398;28;19921;-65
2023/11/28 11:40:13;;;;;;;;;;;;;;;;;;4166110;28;19925;-65
2023/11/28 11:42:14;;;;;;;;;;;;;;;;;;4167425;28;19995;-64
2023/11/28 11:44:16;;;;;;;;;;;;;;;;;;4166802;28;19921;-65
2023/11/28 11:46:18;;;;;;;;;;;;;;;;;;4146395;28;19928;-65
2023/11/28 11:48:19;;;;;;;;;;;;;;;;;;4163581;28;19921;-64
2023/11/28 11:50:21;;;;;;;;;;;;;;;;;;4167331;28;19971;-65
2023/11/28 11:52:29;;;;;;;;;;;;;;;;;;4166583;28;19925;-65
2023/11/28 11:54:31;;;;;;;;;;;;;;;;;;4166886;28;19932;-65
2023/11/28 11:56:32;;;;;;;;;;;;;;;;;;4162571;28;19921;-65
2023/11/28 11:58:34;;;;;;;;;;;;;;;;;;4165495;28;19928;-65
2023/11/28 12:00:35;;;;;;;;;;;;;;;;;;4165749;28;19928;-65
2023/11/28 12:02:37;;;;;;;;;;;;;;;;;;4157374;28;19921;-65
2023/11/28 12:04:39;;;;;;;;;;;;;;;;;;4166973;28;19951;-65
2023/11/28 12:06:43;;;;;;;;;;;;;;;;;;4166830;28;19928;-65
2023/11/28 12:08:45;;;;;;;;;;;;;;;;;;4165473;28;19929;-65
2023/11/28 12:10:46;;;;;;;;;;;;;;;;;;4163837;28;20364;-64
2023/11/28 12:12:48;;;;;;;;;;;;;;;;;;4165544;28;20291;-64
2023/11/28 12:14:49;;;;;;;;;;;;;;;;;;4161437;28;20448;-64
2023/11/28 12:16:51;;;;;;;;;;;;;;;;;;4161522;28;20419;-64
2023/11/28 12:18:52;;;;;;;;;;;;;;;;;;4157233;28;20035;-64
2023/11/28 12:20:54;;;;;;;;;;;;;;;;;;4158686;28;20267;-65
2023/11/28 12:22:58;;;;;;;;;;;;;;;;;;4158353;28;19978;-64
2023/11/28 12:25:00;;;;;;;;;;;;;;;;;;4166650;28;19961;-64
2023/11/28 12:27:02;;;;;;;;;;;;;;;;;;4149196;28;20401;-64
2023/11/28 12:29:04;;;;;;;;;;;;;;;;;;4166396;28;19921;-64
2023/11/28 12:31:05;;;;;;;;;;;;;;;;;;4165467;28;19929;-64
2023/11/28 12:33:07;;;;;;;;;;;;;;;;;;4166549;28;19925;-64
2023/11/28 12:35:08;;;;;;;;;;;;;;;;;;4148623;28;20301;-65
2023/11/28 12:37:10;;;;;;;;;;;;;;;;;;4158542;28;20369;-65
2023/11/28 12:39:11;;;;;;;;;;;;;;;;;;4150130;28;19925;-65
2023/11/28 12:41:13;;;;;;;;;;;;;;;;;;4152858;28;19925;-65
2023/11/28 12:43:16;;;;;;;;;;;;;;;;;;4155241;28;19927;-62
2023/11/28 12:45:17;;;;;;;;;;;;;;;;;;4149926;28;20356;-63
2023/11/28 12:47:19;;;;;;;;;;;;;;;;;;4154806;28;19944;-63
2023/11/28 12:49:20;;;;;;;;;;;;;;;;;;4165551;28;20384;-63
2023/11/28 12:51:22;;;;;;;;;;;;;;;;;;4158896;28;20432;-62
2023/11/28 12:53:25;;;;;;;;;;;;;;;;;;4165984;28;19925;-62
2023/11/28 12:55:27;;;;;;;;;;;;;;;;;;4148599;28;19925;-62
2023/11/28 12:57:28;;;;;;;;;;;;;;;;;;4166091;28;19925;-62
2023/11/28 12:59:29;;;;;;;;;;;;;;;;;;4165830;28;20359;-63
2023/11/28 13:01:31;;;;;;;;;;;;;;;;;;4174912;28;19947;-63
2023/11/28 13:03:34;;;;;;;;;;;;;;;;;;4177331;28;19940;-63
2023/11/28 13:05:36;;;;;;;;;;;;;;;;;;4147657;28;19921;-63
2023/11/28 13:07:37;;;;;;;;;;;;;;;;;;4157632;28;19921;-63
2023/11/28 13:09:47;;;;;;;;;;;;;;;;;;4180956;28;19921;-62
2023/11/28 13:11:49;;;;;;;;;;;;;;;;;;4172753;28;19990;-62
2023/11/28 13:13:51;;;;;;;;;;;;;;;;;;4149595;28;19991;-63
2023/11/28 13:15:54;;;;;;;;;;;;;;;;;;4176286;28;19921;-62
2023/11/28 13:17:55;;;;;;;;;;;;;;;;;;4182262;28;19928;-63
2023/11/28 13:19:57;;;;;;;;;;;;;;;;;;4182196;28;19920;-63
2023/11/28 13:21:58;;;;;;;;;;;;;;;;;;4182078;28;19943;-63
2023/11/28 13:24:00;;;;;;;;;;;;;;;;;;4181775;28;19928;-63
2023/11/28 13:26:01;;;;;;;;;;;;;;;;;;4163822;28;19925;-63
2023/11/28 13:28:03;;;;;;;;;;;;;;;;;;4181915;28;19929;-63
2023/11/28 13:30:05;;;;;;;;;;;;;;;;;;4181879;28;19920;-62
2023/11/28 13:32:07;;;;;;;;;;;;;;;;;;4168634;28;19988;-63
2023/11/28 13:34:11;;;;;;;;;;;;;;;;;;4165667;28;19956;-63
2023/11/28 13:36:15;;;;;;;;;;;;;;;;;;4165245;28;19921;-63
2023/11/28 13:38:17;;;;;;;;;;;;;;;;;;4165233;28;19975;-62
2023/11/28 13:40:19;;;;;;;;;;;;;;;;;;4159310;28;19920;-68
2023/11/28 13:42:20;;;;;;;;;;;;;;;;;;4162452;28;19921;-68
2023/11/28 13:44:22;;;;;;;;;;;;;;;;;;4164968;28;19921;-66
2023/11/28 13:46:24;;;;;;;;;;;;;;;;;;4165534;28;20023;-68
2023/11/28 13:48:29;;;;;;;;;;;;;;;;;;4165249;28;19924;-68
2023/11/28 13:50:30;;;;;;;;;;;;;;;;;;4163937;28;20423;-68
2023/11/28 13:52:32;;;;;;;;;;;;;;;;;;4165029;28;19921;-68